Time;durP1;ratioP1;P1;durP2;ratioP2;P2;SDS_P1;SDS_P2;PMS_P1;PMS_P2;Temp;Humidity;BMP_temperature;BMP_pressure;BME280_temperature;BME280_humidity;BME280_pressure;Samples;Min_cycle;Max_cycle;Signal;HPM_P1;HPM_P2
2022/11/26 00:09:58;;;;;;;15.57;3.78;;;4.70;99.90;;;;;;21333802;27;20037;-79
2022/11/26 00:19:59;;;;;;;19.77;6.95;;;4.80;99.90;;;;;;21302791;27;20531;-80
2022/11/26 00:29:59;;;;;;;;;;;5.00;99.90;;;;;;21247258;27;20027;-80
2022/11/26 00:40:01;;;;;;;40.07;8.40;;;5.10;99.90;;;;;;21246350;27;19907;-79
2022/11/26 00:50:02;;;;;;;42.28;9.18;;;4.90;99.90;;;;;;21305552;27;20283;-79
2022/11/26 01:00:15;;;;;;;5.50;2.00;;;4.80;99.90;;;;;;21343725;27;20065;-78
2022/11/26 01:10:18;;;;;;;5.20;2.10;;;3.90;99.90;;;;;;21328402;27;20046;-80
2022/11/26 01:20:19;;;;;;;6.90;2.83;;;4.30;99.90;;;;;;21353370;27;20214;-80
2022/11/26 01:30:24;;;;;;;6.90;2.55;;;4.30;99.90;;;;;;21421050;27;20125;-81
2022/11/26 01:40:25;;;;;;;6.63;3.10;;;4.50;99.90;;;;;;21417612;27;20090;-79
2022/11/26 01:50:31;;;;;;;4.77;2.43;;;4.50;99.90;;;;;;21260842;27;20515;-79
2022/11/26 02:00:32;;;;;;;8.85;2.92;;;4.50;99.90;;;;;;21248606;27;20288;-79
2022/11/26 02:10:33;;;;;;;;;;;4.60;99.90;;;;;;21247837;27;20322;-80
2022/11/26 02:21:04;;;;;;;6.90;3.60;;;4.50;99.90;;;;;;21228076;27;19956;-79
2022/11/26 02:31:12;;;;;;;9.95;3.50;;;4.60;99.90;;;;;;21209475;27;20493;-79
2022/11/26 02:41:13;;;;;;;11.68;3.70;;;4.40;99.90;;;;;;21227063;28;20042;-80
2022/11/26 02:51:21;;;;;;;7.00;3.60;;;4.30;99.90;;;;;;21244374;28;20036;-81
2022/11/26 03:01:46;;;;;;;10.85;4.85;;;4.50;99.90;;;;;;21225259;28;20083;-79
2022/11/26 03:11:47;;;;;;;13.52;4.70;;;4.50;99.90;;;;;;21282390;27;20031;-80
2022/11/26 03:21:48;;;;;;;17.10;6.68;;;4.60;99.90;;;;;;21315327;27;20061;-80
2022/11/26 03:31:48;;;;;;;;;;;4.70;99.90;;;;;;21327066;27;20030;-80
2022/11/26 03:41:49;;;;;;;14.47;6.33;;;4.80;99.90;;;;;;21310248;27;20362;-79
2022/11/26 03:51:50;;;;;;;;;;;4.80;99.90;;;;;;21325172;27;20327;-79
2022/11/26 04:01:51;;;;;;;22.27;7.60;;;4.60;99.90;;;;;;21306159;27;19938;-79
2022/11/26 04:11:51;;;;;;;32.60;8.38;;;4.50;99.90;;;;;;21322085;27;20042;-80
2022/11/26 04:21:52;;;;;;;22.52;8.85;;;4.50;99.90;;;;;;21305840;27;20054;-80
2022/11/26 04:31:54;;;;;;;11.18;4.60;;;4.50;99.90;;;;;;21257597;27;20048;-80
2022/11/26 04:41:55;;;;;;;11.05;2.65;;;4.50;99.90;;;;;;21254584;27;20414;-80
2022/11/26 04:51:55;;;;;;;11.85;4.85;;;4.30;99.90;;;;;;21220187;27;20039;-80
2022/11/26 05:01:58;;;;;;;4.55;1.50;;;4.40;99.90;;;;;;21255864;27;20035;-79
2022/11/26 05:11:59;;;;;;;2.53;1.50;;;3.70;99.90;;;;;;21253108;27;20038;-79
2022/11/26 05:21:59;;;;;;;9.75;1.50;;;3.50;99.90;;;;;;21299241;27;20034;-80
2022/11/26 05:32:00;;;;;;;45.75;3.20;;;3.20;99.90;;;;;;21334914;27;20041;-80
2022/11/26 05:42:01;;;;;;;6.82;1.35;;;3.30;99.90;;;;;;21315404;27;20059;-80
2022/11/26 05:52:02;;;;;;;10.80;2.05;;;2.90;99.90;;;;;;21333160;27;20033;-80
2022/11/26 06:02:03;;;;;;;16.17;5.35;;;2.50;99.90;;;;;;21297044;27;20045;-80
2022/11/26 06:12:04;;;;;;;15.23;5.70;;;2.70;99.90;;;;;;21314512;27;20031;-80
2022/11/26 06:22:05;;;;;;;181.88;16.80;;;3.00;99.90;;;;;;21312371;27;20035;-80
2022/11/26 06:32:05;;;;;;;97.13;11.88;;;3.20;99.90;;;;;;21329367;27;20508;-79
2022/11/26 06:42:06;;;;;;;14.00;5.05;;;3.20;99.90;;;;;;21312149;27;20090;-79
2022/11/26 06:52:07;;;;;;;13.82;5.22;;;3.10;99.90;;;;;;21329517;27;20114;-80
2022/11/26 07:02:09;;;;;;;17.33;5.43;;;3.00;99.90;;;;;;21345147;27;20075;-79
2022/11/26 07:12:10;;;;;;;17.45;6.30;;;3.10;99.90;;;;;;21329843;27;20062;-79
2022/11/26 07:22:11;;;;;;;12.88;4.38;;;3.20;99.90;;;;;;21327736;27;20031;-80
2022/11/26 07:32:12;;;;;;;12.50;4.00;;;3.30;99.90;;;;;;21302463;27;20099;-79
2022/11/26 07:42:13;;;;;;;9.75;3.53;;;3.60;99.90;;;;;;21283355;27;20023;-79
2022/11/26 07:52:14;;;;;;;10.13;2.55;;;3.80;99.90;;;;;;21287978;27;20486;-79
2022/11/26 08:02:15;;;;;;;12.77;4.35;;;3.90;99.90;;;;;;21309459;27;20034;-79
2022/11/26 08:12:16;;;;;;;9.43;2.22;;;4.10;99.90;;;;;;21288622;27;20102;-79
2022/11/26 08:22:16;;;;;;;5.70;1.58;;;4.10;99.90;;;;;;21305328;27;20118;-78
2022/11/26 08:32:17;;;;;;;15.38;4.40;;;4.40;99.90;;;;;;21340514;27;20406;-79
2022/11/26 08:42:18;;;;;;;12.23;3.65;;;4.70;99.90;;;;;;21340096;27;20117;-79
2022/11/26 08:52:19;;;;;;;;;;;5.00;99.90;;;;;;21342237;27;20042;-79
2022/11/26 09:02:20;;;;;;;4.17;1.70;;;5.20;99.90;;;;;;21340504;27;19932;-79
2022/11/26 09:12:21;;;;;;;5.28;1.90;;;5.40;99.90;;;;;;21339465;27;20038;-79
2022/11/26 09:22:22;;;;;;;;;;;5.60;99.90;;;;;;21338224;27;20446;-79
2022/11/26 09:32:23;;;;;;;12.80;4.47;;;8.00;99.90;;;;;;21335868;27;20364;-78
2022/11/26 09:42:27;;;;;;;7.87;3.80;;;9.50;99.90;;;;;;21316279;27;20037;-79
2022/11/26 09:52:32;;;;;;;10.30;4.53;;;10.10;99.90;;;;;;21335091;27;20027;-79
2022/11/26 10:02:35;;;;;;;6.68;3.08;;;10.80;99.90;;;;;;21263023;27;20550;-79
2022/11/26 10:12:51;;;;;;;9.70;3.95;;;11.00;99.90;;;;;;21261551;27;20046;-79
2022/11/26 10:23:10;;;;;;;5.55;1.70;;;11.30;99.90;;;;;;21301569;27;20049;-80
2022/11/26 10:33:16;;;;;;;9.68;2.35;;;11.90;99.90;;;;;;21331226;27;20031;-80
2022/11/26 10:43:21;;;;;;;14.02;3.08;;;12.10;99.90;;;;;;21295178;27;20034;-79
2022/11/26 10:53:23;;;;;;;10.60;3.15;;;11.60;99.90;;;;;;21330735;27;20117;-79
2022/11/26 11:03:28;;;;;;;7.72;2.88;;;12.30;99.90;;;;;;21313057;27;20030;-80
2022/11/26 11:13:58;;;;;;;10.20;4.57;;;12.60;99.90;;;;;;21347626;27;20023;-80
2022/11/26 11:24:14;;;;;;;8.15;3.92;;;12.20;99.90;;;;;;21307792;27;20534;-78
2022/11/26 11:34:28;;;;;;;8.25;2.47;;;11.40;99.90;;;;;;21345366;27;20044;-80
2022/11/26 11:44:42;;;;;;;7.72;2.50;;;12.60;99.90;;;;;;21329697;27;20493;-79
2022/11/26 11:55:20;;;;;;;13.02;2.55;;;12.80;99.90;;;;;;21361117;27;20042;-79
2022/11/26 12:05:33;;;;;;;8.50;3.03;;;10.90;99.90;;;;;;21341992;27;20113;-79
2022/11/26 12:15:50;;;;;;;10.43;2.95;;;12.10;99.90;;;;;;21361905;27;20035;-79
2022/11/26 12:25:57;;;;;;;7.85;2.78;;;13.80;99.90;;;;;;21359787;27;20034;-80
2022/11/26 12:36:06;;;;;;;9.85;3.10;;;14.80;99.90;;;;;;21340128;27;20038;-80
2022/11/26 12:46:15;;;;;;;4.30;2.28;;;12.70;99.90;;;;;;21339148;27;20035;-80
2022/11/26 12:56:45;;;;;;;10.23;2.80;;;13.90;99.90;;;;;;21308611;27;20045;-80
2022/11/26 13:07:01;;;;;;;6.45;3.20;;;13.40;99.90;;;;;;21271393;27;20565;-80
2022/11/26 13:17:12;;;;;;;11.50;3.38;;;14.30;99.90;;;;;;21297033;27;20062;-80
2022/11/26 13:27:18;;;;;;;9.32;4.78;;;14.00;99.90;;;;;;21244511;27;20058;-79
2022/11/26 13:37:53;;;;;;;8.02;2.47;;;12.70;99.90;;;;;;21267988;27;20043;-80
2022/11/26 13:48:04;;;;;;;8.90;2.60;;;14.00;99.90;;;;;;21241996;27;20035;-79
2022/11/26 13:58:12;;;;;;;8.13;2.50;;;13.20;99.90;;;;;;21226884;27;20412;-79
2022/11/26 14:08:33;;;;;;;5.60;2.25;;;11.70;99.90;;;;;;21264282;27;20027;-79
2022/11/26 14:18:55;;;;;;;12.60;2.67;;;11.50;99.90;;;;;;21277525;27;20026;-80
2022/11/26 14:29:12;;;;;;;10.77;2.92;;;11.10;99.90;;;;;;21338945;27;20027;-80
2022/11/26 14:39:15;;;;;;;9.57;2.50;;;11.60;99.90;;;;;;21316841;27;20034;-79
2022/11/26 14:49:28;;;;;;;5.28;3.03;;;11.20;99.90;;;;;;21344305;27;20070;-80
2022/11/26 14:59:29;;;;;;;9.13;3.85;;;11.10;99.90;;;;;;21320222;27;20418;-80
2022/11/26 15:09:30;;;;;;;4.77;2.43;;;10.80;99.90;;;;;;21336166;27;20042;-79
2022/11/26 15:19:35;;;;;;;8.00;2.53;;;11.00;99.90;;;;;;21349641;27;20031;-79
2022/11/26 15:29:40;;;;;;;33.00;14.30;;;9.50;99.90;;;;;;21280486;27;20054;-79
2022/11/26 15:39:40;;;;;;;6.88;3.42;;;8.90;99.90;;;;;;21322524;27;20061;-79
2022/11/26 15:49:43;;;;;;;10.13;5.00;;;8.40;99.90;;;;;;21331796;27;20475;-79
2022/11/26 15:59:52;;;;;;;10.63;5.00;;;6.40;99.90;;;;;;21325078;27;20038;-79
2022/11/26 16:10:14;;;;;;;14.43;4.95;;;5.60;99.90;;;;;;21346844;27;20027;-79
2022/11/26 16:20:24;;;;;;;17.00;8.20;;;5.40;99.90;;;;;;21294508;27;20371;-79
2022/11/26 16:30:25;;;;;;;15.90;6.60;;;5.60;99.90;;;;;;21238348;27;20027;-79
2022/11/26 16:40:26;;;;;;;10.73;4.70;;;5.80;99.90;;;;;;21256072;27;20051;-80
2022/11/26 16:50:27;;;;;;;11.10;3.50;;;5.90;99.90;;;;;;21255416;27;20042;-79
2022/11/26 17:00:28;;;;;;;;;;;5.80;99.90;;;;;;21263914;27;20035;-79
2022/11/26 17:10:29;;;;;;;9.17;3.83;;;5.80;99.90;;;;;;21248407;27;19919;-80
2022/11/26 17:20:29;;;;;;;;;;;5.60;99.90;;;;;;21285313;27;20298;-79
2022/11/26 17:30:30;;;;;;;8.50;3.00;;;5.20;99.90;;;;;;21348522;27;20307;-80
2022/11/26 17:40:31;;;;;;;;;;;5.10;99.90;;;;;;21345110;27;20043;-80
2022/11/26 17:50:33;;;;;;;12.70;4.70;;;5.10;99.90;;;;;;21308732;27;19914;-80
2022/11/26 18:00:33;;;;;;;8.27;2.58;;;5.00;99.90;;;;;;21327672;27;20027;-79
2022/11/26 18:10:37;;;;;;;15.85;4.60;;;4.80;99.90;;;;;;21345683;27;20034;-79
2022/11/26 18:20:38;;;;;;;7.55;2.35;;;4.70;99.90;;;;;;21295323;27;20120;-79
2022/11/26 18:30:39;;;;;;;6.28;2.22;;;4.50;99.90;;;;;;21244036;27;20059;-79
2022/11/26 18:40:39;;;;;;;7.35;2.60;;;4.50;99.90;;;;;;21226351;27;20118;-80
2022/11/26 18:50:40;;;;;;;;;;;4.50;99.90;;;;;;21250438;27;20026;-79
2022/11/26 19:00:41;;;;;;;5.82;2.25;;;4.50;99.90;;;;;;21247220;27;19907;-79
2022/11/26 19:10:42;;;;;;;5.55;2.15;;;4.50;99.90;;;;;;21266024;27;20061;-80
2022/11/26 19:20:51;;;;;;;7.25;1.98;;;4.40;99.90;;;;;;21248768;27;20050;-79
2022/11/26 19:31:04;;;;;;;5.60;1.95;;;4.10;99.90;;;;;;21262026;27;20043;-79
2022/11/26 19:41:05;;;;;;;6.40;2.30;;;4.00;99.90;;;;;;21259229;27;20015;-78
2022/11/26 19:51:07;;;;;;;7.07;2.67;;;4.00;99.90;;;;;;21263574;27;20106;-79
2022/11/26 20:01:10;;;;;;;6.38;2.40;;;3.90;99.90;;;;;;21247087;27;20031;-78
2022/11/26 20:11:13;;;;;;;5.03;1.95;;;3.90;99.90;;;;;;21258540;27;20027;-78
2022/11/26 20:21:18;;;;;;;12.73;2.65;;;3.90;99.90;;;;;;21254616;27;20031;-78
2022/11/26 20:31:20;;;;;;;8.98;1.98;;;3.90;99.90;;;;;;21217069;27;20031;-80
2022/11/26 20:41:22;;;;;;;11.23;2.60;;;3.90;99.90;;;;;;21267111;27;20035;-79
2022/11/26 20:51:23;;;;;;;5.88;2.40;;;3.80;99.90;;;;;;21284410;27;20034;-79
2022/11/26 21:01:27;;;;;;;9.18;3.67;;;3.70;99.90;;;;;;21266585;27;20067;-79
2022/11/26 21:11:29;;;;;;;12.10;4.03;;;3.60;99.90;;;;;;21248441;27;20042;-79
2022/11/26 21:21:29;;;;;;;12.00;4.68;;;3.50;99.90;;;;;;21282155;27;20037;-79
2022/11/26 21:31:31;;;;;;;13.30;4.65;;;3.30;99.90;;;;;;21337687;27;20031;-79
2022/11/26 21:41:32;;;;;;;11.30;4.40;;;3.20;99.90;;;;;;21343867;27;20489;-78
2022/11/26 21:51:33;;;;;;;8.48;2.97;;;3.20;99.90;;;;;;21312836;27;20482;-78
2022/11/26 22:01:35;;;;;;;16.98;6.63;;;3.10;99.90;;;;;;21323767;27;20031;-78
2022/11/26 22:11:39;;;;;;;19.15;5.15;;;3.20;99.90;;;;;;21337399;27;20031;-79
2022/11/26 22:21:41;;;;;;;12.70;6.63;;;3.00;99.90;;;;;;21338368;27;20117;-79
2022/11/26 22:31:42;;;;;;;14.93;7.32;;;2.80;99.90;;;;;;21302585;27;20041;-79
2022/11/26 22:41:45;;;;;;;14.48;6.53;;;2.70;99.90;;;;;;21317182;27;20027;-79
2022/11/26 22:51:46;;;;;;;13.18;6.25;;;2.50;99.90;;;;;;21318357;27;20027;-79
2022/11/26 23:01:46;;;;;;;15.07;6.78;;;2.50;99.90;;;;;;21299884;27;20031;-79
2022/11/26 23:11:47;;;;;;;15.63;6.65;;;2.50;99.90;;;;;;21333672;27;20512;-79
2022/11/26 23:21:48;;;;;;;18.77;6.22;;;2.40;99.90;;;;;;21314497;27;20110;-79
2022/11/26 23:31:49;;;;;;;14.68;6.60;;;2.20;99.90;;;;;;21332226;27;20042;-79
2022/11/26 23:41:50;;;;;;;13.02;5.88;;;2.30;99.90;;;;;;21342135;27;20397;-79
2022/11/26 23:51:51;;;;;;;14.55;6.03;;;2.30;99.90;;;;;;21330235;27;20023;-79
